sensor_id;sensor_type;location;lat;lon;timestamp;P1;durP1;ratioP1;P2;durP2;ratioP2
12585;SDS011;6358;50.760;0.282;2022-08-24T00:02:11;1.15;;;1.00;;
12585;SDS011;6358;50.760;0.282;2022-08-24T00:04:37;1.42;;;0.93;;
12585;SDS011;6358;50.760;0.282;2022-08-24T00:07:03;0.98;;;0.88;;
12585;SDS011;6358;50.760;0.282;2022-08-24T00:09:29;0.98;;;0.93;;
12585;SDS011;6358;50.760;0.282;2022-08-24T00:11:56;1.35;;;0.95;;
12585;SDS011;6358;50.760;0.282;2022-08-24T00:14:23;1.42;;;1.05;;
12585;SDS011;6358;50.760;0.282;2022-08-24T00:16:49;1.17;;;0.85;;
12585;SDS011;6358;50.760;0.282;2022-08-24T00:19:15;1.13;;;1.02;;
12585;SDS011;6358;50.760;0.282;2022-08-24T00:21:42;1.00;;;0.90;;
12585;SDS011;6358;50.760;0.282;2022-08-24T00:24:08;1.33;;;0.98;;
12585;SDS011;6358;50.760;0.282;2022-08-24T00:26:35;1.73;;;1.10;;
12585;SDS011;6358;50.760;0.282;2022-08-24T00:29:01;1.48;;;1.10;;
12585;SDS011;6358;50.760;0.282;2022-08-24T00:31:27;2.05;;;1.23;;
12585;SDS011;6358;50.760;0.282;2022-08-24T00:33:53;1.40;;;1.13;;
12585;SDS011;6358;50.760;0.282;2022-08-24T00:36:21;1.95;;;1.10;;
12585;SDS011;6358;50.760;0.282;2022-08-24T00:38:47;0.90;;;0.90;;
12585;SDS011;6358;50.760;0.282;2022-08-24T00:41:14;3.55;;;1.40;;
12585;SDS011;6358;50.760;0.282;2022-08-24T00:43:54;1.65;;;1.00;;
12585;SDS011;6358;50.760;0.282;2022-08-24T00:46:24;1.67;;;1.10;;
12585;SDS011;6358;50.760;0.282;2022-08-24T00:48:54;1.10;;;1.00;;
12585;SDS011;6358;50.760;0.282;2022-08-24T00:51:23;1.42;;;1.20;;
12585;SDS011;6358;50.760;0.282;2022-08-24T00:54:00;1.10;;;1.00;;
12585;SDS011;6358;50.760;0.282;2022-08-24T00:56:31;1.38;;;1.05;;
12585;SDS011;6358;50.760;0.282;2022-08-24T00:59:04;1.48;;;1.10;;
12585;SDS011;6358;50.760;0.282;2022-08-24T01:01:32;1.25;;;1.10;;
12585;SDS011;6358;50.760;0.282;2022-08-24T01:04:00;1.25;;;1.10;;
12585;SDS011;6358;50.760;0.282;2022-08-24T01:06:26;0.82;;;0.82;;
12585;SDS011;6358;50.760;0.282;2022-08-24T01:08:52;1.42;;;1.00;;
12585;SDS011;6358;50.760;0.282;2022-08-24T01:11:19;1.20;;;1.10;;
12585;SDS011;6358;50.760;0.282;2022-08-24T01:13:46;1.85;;;1.27;;
12585;SDS011;6358;50.760;0.282;2022-08-24T01:16:14;1.60;;;1.10;;
12585;SDS011;6358;50.760;0.282;2022-08-24T01:19:01;1.02;;;0.98;;
12585;SDS011;6358;50.760;0.282;2022-08-24T01:21:32;1.20;;;1.10;;
12585;SDS011;6358;50.760;0.282;2022-08-24T01:24:00;1.55;;;1.00;;
12585;SDS011;6358;50.760;0.282;2022-08-24T01:26:30;1.10;;;1.00;;
12585;SDS011;6358;50.760;0.282;2022-08-24T01:28:59;1.88;;;1.15;;
12585;SDS011;6358;50.760;0.282;2022-08-24T01:31:26;1.50;;;1.00;;
12585;SDS011;6358;50.760;0.282;2022-08-24T01:33:52;2.33;;;1.25;;
12585;SDS011;6358;50.760;0.282;2022-08-24T01:38:45;1.90;;;1.20;;
12585;SDS011;6358;50.760;0.282;2022-08-24T01:41:12;2.17;;;1.10;;
12585;SDS011;6358;50.760;0.282;2022-08-24T01:43:38;1.75;;;1.00;;
12585;SDS011;6358;50.760;0.282;2022-08-24T01:46:06;2.17;;;1.10;;
12585;SDS011;6358;50.760;0.282;2022-08-24T01:48:33;1.13;;;1.02;;
12585;SDS011;6358;50.760;0.282;2022-08-24T01:50:59;1.20;;;1.10;;
12585;SDS011;6358;50.760;0.282;2022-08-24T01:53:25;2.85;;;1.30;;
12585;SDS011;6358;50.760;0.282;2022-08-24T01:55:51;1.23;;;1.10;;
12585;SDS011;6358;50.760;0.282;2022-08-24T01:58:17;1.45;;;1.10;;
12585;SDS011;6358;50.760;0.282;2022-08-24T02:00:44;1.55;;;1.08;;
12585;SDS011;6358;50.760;0.282;2022-08-24T02:03:10;1.00;;;0.90;;
12585;SDS011;6358;50.760;0.282;2022-08-24T02:05:36;0.85;;;0.85;;
12585;SDS011;6358;50.760;0.282;2022-08-24T02:08:03;0.90;;;0.90;;
12585;SDS011;6358;50.760;0.282;2022-08-24T02:10:29;2.30;;;1.23;;
12585;SDS011;6358;50.760;0.282;2022-08-24T02:12:55;1.60;;;1.10;;
12585;SDS011;6358;50.760;0.282;2022-08-24T02:15:26;1.40;;;1.05;;
12585;SDS011;6358;50.760;0.282;2022-08-24T02:17:53;2.10;;;1.20;;
12585;SDS011;6358;50.760;0.282;2022-08-24T02:20:19;1.50;;;1.20;;
12585;SDS011;6358;50.760;0.282;2022-08-24T02:22:46;1.23;;;1.10;;
12585;SDS011;6358;50.760;0.282;2022-08-24T02:25:12;1.45;;;1.30;;
12585;SDS011;6358;50.760;0.282;2022-08-24T02:27:38;1.40;;;1.10;;
12585;SDS011;6358;50.760;0.282;2022-08-24T02:30:05;1.10;;;1.00;;
12585;SDS011;6358;50.760;0.282;2022-08-24T02:32:31;1.35;;;1.15;;
12585;SDS011;6358;50.760;0.282;2022-08-24T02:34:57;1.90;;;1.33;;
12585;SDS011;6358;50.760;0.282;2022-08-24T02:37:24;1.30;;;1.20;;
12585;SDS011;6358;50.760;0.282;2022-08-24T02:39:51;1.98;;;1.20;;
12585;SDS011;6358;50.760;0.282;2022-08-24T02:42:17;1.70;;;1.25;;
12585;SDS011;6358;50.760;0.282;2022-08-24T02:44:44;1.20;;;1.08;;
12585;SDS011;6358;50.760;0.282;2022-08-24T02:47:10;1.33;;;1.23;;
12585;SDS011;6358;50.760;0.282;2022-08-24T02:49:36;1.30;;;1.20;;
12585;SDS011;6358;50.760;0.282;2022-08-24T02:52:02;1.65;;;1.20;;
12585;SDS011;6358;50.760;0.282;2022-08-24T02:54:28;1.40;;;1.10;;
12585;SDS011;6358;50.760;0.282;2022-08-24T02:56:55;2.25;;;1.20;;
12585;SDS011;6358;50.760;0.282;2022-08-24T02:59:21;0.90;;;0.90;;
12585;SDS011;6358;50.760;0.282;2022-08-24T03:01:47;1.33;;;1.20;;
12585;SDS011;6358;50.760;0.282;2022-08-24T03:04:14;2.65;;;1.20;;
12585;SDS011;6358;50.760;0.282;2022-08-24T03:06:41;1.40;;;1.20;;
12585;SDS011;6358;50.760;0.282;2022-08-24T03:09:08;1.27;;;1.17;;
12585;SDS011;6358;50.760;0.282;2022-08-24T03:11:35;1.70;;;1.13;;
12585;SDS011;6358;50.760;0.282;2022-08-24T03:14:01;1.58;;;1.02;;
12585;SDS011;6358;50.760;0.282;2022-08-24T03:16:28;1.63;;;1.20;;
12585;SDS011;6358;50.760;0.282;2022-08-24T03:18:54;1.17;;;1.00;;
12585;SDS011;6358;50.760;0.282;2022-08-24T03:21:20;1.10;;;1.00;;
12585;SDS011;6358;50.760;0.282;2022-08-24T03:23:46;1.85;;;1.02;;
12585;SDS011;6358;50.760;0.282;2022-08-24T03:26:12;2.13;;;1.27;;
12585;SDS011;6358;50.760;0.282;2022-08-24T03:28:39;1.10;;;1.00;;
12585;SDS011;6358;50.760;0.282;2022-08-24T03:31:05;0.80;;;0.80;;
12585;SDS011;6358;50.760;0.282;2022-08-24T03:33:32;1.73;;;1.20;;
12585;SDS011;6358;50.760;0.282;2022-08-24T03:35:58;1.20;;;1.10;;
12585;SDS011;6358;50.760;0.282;2022-08-24T03:38:24;1.30;;;1.20;;
12585;SDS011;6358;50.760;0.282;2022-08-24T03:40:50;1.33;;;1.23;;
12585;SDS011;6358;50.760;0.282;2022-08-24T03:43:17;1.52;;;1.20;;
12585;SDS011;6358;50.760;0.282;2022-08-24T03:46:03;1.77;;;1.15;;
12585;SDS011;6358;50.760;0.282;2022-08-24T03:48:31;1.80;;;1.15;;
12585;SDS011;6358;50.760;0.282;2022-08-24T03:50:57;1.80;;;1.33;;
12585;SDS011;6358;50.760;0.282;2022-08-24T03:53:24;1.98;;;1.23;;
12585;SDS011;6358;50.760;0.282;2022-08-24T03:55:50;2.20;;;1.27;;
12585;SDS011;6358;50.760;0.282;2022-08-24T03:58:16;1.27;;;1.17;;
12585;SDS011;6358;50.760;0.282;2022-08-24T04:00:42;1.33;;;1.10;;
12585;SDS011;6358;50.760;0.282;2022-08-24T04:03:09;1.85;;;1.15;;
12585;SDS011;6358;50.760;0.282;2022-08-24T04:05:36;1.20;;;1.10;;
12585;SDS011;6358;50.760;0.282;2022-08-24T04:08:03;2.15;;;1.40;;
12585;SDS011;6358;50.760;0.282;2022-08-24T04:10:30;1.42;;;1.10;;
12585;SDS011;6358;50.760;0.282;2022-08-24T04:12:56;1.88;;;1.40;;
12585;SDS011;6358;50.760;0.282;2022-08-24T04:15:25;1.58;;;1.10;;
12585;SDS011;6358;50.760;0.282;2022-08-24T04:17:51;1.30;;;1.20;;
12585;SDS011;6358;50.760;0.282;2022-08-24T04:20:18;1.38;;;1.20;;
12585;SDS011;6358;50.760;0.282;2022-08-24T04:22:44;1.67;;;1.10;;
12585;SDS011;6358;50.760;0.282;2022-08-24T04:25:10;2.22;;;1.25;;
12585;SDS011;6358;50.760;0.282;2022-08-24T04:27:38;1.75;;;1.40;;
12585;SDS011;6358;50.760;0.282;2022-08-24T04:30:04;1.85;;;1.40;;
12585;SDS011;6358;50.760;0.282;2022-08-24T04:32:31;1.25;;;1.15;;
12585;SDS011;6358;50.760;0.282;2022-08-24T04:34:57;1.38;;;1.20;;
12585;SDS011;6358;50.760;0.282;2022-08-24T04:37:23;1.75;;;1.20;;
12585;SDS011;6358;50.760;0.282;2022-08-24T04:39:50;1.40;;;1.30;;
12585;SDS011;6358;50.760;0.282;2022-08-24T04:42:17;2.20;;;1.48;;
12585;SDS011;6358;50.760;0.282;2022-08-24T04:44:44;1.38;;;1.27;;
12585;SDS011;6358;50.760;0.282;2022-08-24T04:47:10;1.23;;;1.15;;
12585;SDS011;6358;50.760;0.282;2022-08-24T04:49:36;2.03;;;1.42;;
12585;SDS011;6358;50.760;0.282;2022-08-24T04:52:03;2.08;;;1.48;;
12585;SDS011;6358;50.760;0.282;2022-08-24T04:54:30;1.73;;;1.50;;
12585;SDS011;6358;50.760;0.282;2022-08-24T04:56:56;1.55;;;1.40;;
12585;SDS011;6358;50.760;0.282;2022-08-24T04:59:22;1.30;;;1.20;;
12585;SDS011;6358;50.760;0.282;2022-08-24T05:01:49;2.05;;;1.50;;
12585;SDS011;6358;50.760;0.282;2022-08-24T05:04:16;2.05;;;1.33;;
12585;SDS011;6358;50.760;0.282;2022-08-24T05:06:42;1.90;;;1.60;;
12585;SDS011;6358;50.760;0.282;2022-08-24T05:09:08;1.50;;;1.40;;
12585;SDS011;6358;50.760;0.282;2022-08-24T05:11:35;1.88;;;1.30;;
12585;SDS011;6358;50.760;0.282;2022-08-24T05:14:01;2.13;;;1.30;;
12585;SDS011;6358;50.760;0.282;2022-08-24T05:16:28;2.03;;;1.48;;
12585;SDS011;6358;50.760;0.282;2022-08-24T05:18:56;1.55;;;1.45;;
12585;SDS011;6358;50.760;0.282;2022-08-24T05:21:22;2.35;;;1.48;;
12585;SDS011;6358;50.760;0.282;2022-08-24T05:23:49;1.48;;;1.30;;
12585;SDS011;6358;50.760;0.282;2022-08-24T05:26:17;1.55;;;1.30;;
12585;SDS011;6358;50.760;0.282;2022-08-24T05:28:43;1.98;;;1.35;;
12585;SDS011;6358;50.760;0.282;2022-08-24T05:31:13;1.98;;;1.52;;
12585;SDS011;6358;50.760;0.282;2022-08-24T05:33:40;1.50;;;1.40;;
12585;SDS011;6358;50.760;0.282;2022-08-24T05:36:13;2.55;;;1.50;;
12585;SDS011;6358;50.760;0.282;2022-08-24T05:38:39;1.70;;;1.25;;
12585;SDS011;6358;50.760;0.282;2022-08-24T05:41:06;1.48;;;1.20;;
12585;SDS011;6358;50.760;0.282;2022-08-24T05:43:32;1.85;;;1.30;;
12585;SDS011;6358;50.760;0.282;2022-08-24T05:45:58;1.50;;;1.23;;
12585;SDS011;6358;50.760;0.282;2022-08-24T05:48:24;1.65;;;1.33;;
12585;SDS011;6358;50.760;0.282;2022-08-24T05:50:54;1.17;;;1.02;;
12585;SDS011;6358;50.760;0.282;2022-08-24T05:53:20;1.35;;;1.08;;
12585;SDS011;6358;50.760;0.282;2022-08-24T05:55:47;1.05;;;1.00;;
12585;SDS011;6358;50.760;0.282;2022-08-24T05:58:13;1.38;;;1.00;;
12585;SDS011;6358;50.760;0.282;2022-08-24T06:00:39;1.50;;;1.20;;
12585;SDS011;6358;50.760;0.282;2022-08-24T06:03:05;1.20;;;1.10;;
12585;SDS011;6358;50.760;0.282;2022-08-24T06:05:32;1.10;;;1.00;;
12585;SDS011;6358;50.760;0.282;2022-08-24T06:07:58;1.48;;;1.00;;
12585;SDS011;6358;50.760;0.282;2022-08-24T06:10:25;1.23;;;1.00;;
12585;SDS011;6358;50.760;0.282;2022-08-24T06:12:51;1.83;;;1.17;;
12585;SDS011;6358;50.760;0.282;2022-08-24T06:15:17;1.30;;;1.02;;
12585;SDS011;6358;50.760;0.282;2022-08-24T06:17:45;1.67;;;1.05;;
12585;SDS011;6358;50.760;0.282;2022-08-24T06:20:11;1.08;;;0.98;;
12585;SDS011;6358;50.760;0.282;2022-08-24T06:22:37;0.93;;;0.88;;
12585;SDS011;6358;50.760;0.282;2022-08-24T06:25:04;1.20;;;1.00;;
12585;SDS011;6358;50.760;0.282;2022-08-24T06:27:49;1.08;;;0.85;;
12585;SDS011;6358;50.760;0.282;2022-08-24T06:30:15;0.80;;;0.80;;
12585;SDS011;6358;50.760;0.282;2022-08-24T06:32:42;0.85;;;0.85;;
12585;SDS011;6358;50.760;0.282;2022-08-24T06:35:08;1.55;;;0.90;;
12585;SDS011;6358;50.760;0.282;2022-08-24T06:37:34;1.10;;;1.00;;
12585;SDS011;6358;50.760;0.282;2022-08-24T06:40:00;1.38;;;0.88;;
12585;SDS011;6358;50.760;0.282;2022-08-24T06:42:27;1.13;;;1.02;;
12585;SDS011;6358;50.760;0.282;2022-08-24T06:44:56;1.23;;;1.10;;
12585;SDS011;6358;50.760;0.282;2022-08-24T06:47:22;1.00;;;0.90;;
12585;SDS011;6358;50.760;0.282;2022-08-24T06:49:49;1.08;;;0.82;;
12585;SDS011;6358;50.760;0.282;2022-08-24T06:52:15;0.90;;;0.80;;
12585;SDS011;6358;50.760;0.282;2022-08-24T06:54:41;0.82;;;0.80;;
12585;SDS011;6358;50.760;0.282;2022-08-24T06:57:07;1.50;;;0.80;;
12585;SDS011;6358;50.760;0.282;2022-08-24T06:59:33;0.95;;;0.90;;
12585;SDS011;6358;50.760;0.282;2022-08-24T07:01:59;2.03;;;1.00;;
12585;SDS011;6358;50.760;0.282;2022-08-24T07:04:26;1.00;;;0.90;;
12585;SDS011;6358;50.760;0.282;2022-08-24T07:06:53;0.60;;;0.60;;
12585;SDS011;6358;50.760;0.282;2022-08-24T07:09:20;1.38;;;0.90;;
12585;SDS011;6358;50.760;0.282;2022-08-24T07:11:49;1.88;;;1.10;;
12585;SDS011;6358;50.760;0.282;2022-08-24T07:14:15;1.52;;;0.90;;
12585;SDS011;6358;50.760;0.282;2022-08-24T07:16:41;0.90;;;0.90;;
12585;SDS011;6358;50.760;0.282;2022-08-24T07:19:07;1.88;;;0.90;;
12585;SDS011;6358;50.760;0.282;2022-08-24T07:21:34;1.20;;;1.10;;
12585;SDS011;6358;50.760;0.282;2022-08-24T07:24:01;1.02;;;0.90;;
12585;SDS011;6358;50.760;0.282;2022-08-24T07:26:29;1.70;;;1.27;;
12585;SDS011;6358;50.760;0.282;2022-08-24T07:28:57;4.15;;;1.60;;
12585;SDS011;6358;50.760;0.282;2022-08-24T07:31:28;1.48;;;1.00;;
12585;SDS011;6358;50.760;0.282;2022-08-24T07:33:55;1.45;;;0.90;;
12585;SDS011;6358;50.760;0.282;2022-08-24T07:36:21;0.95;;;0.75;;
12585;SDS011;6358;50.760;0.282;2022-08-24T07:38:47;1.58;;;1.00;;
12585;SDS011;6358;50.760;0.282;2022-08-24T07:41:16;1.33;;;0.90;;
12585;SDS011;6358;50.760;0.282;2022-08-24T07:43:42;0.80;;;0.80;;
12585;SDS011;6358;50.760;0.282;2022-08-24T07:46:10;1.45;;;1.02;;
12585;SDS011;6358;50.760;0.282;2022-08-24T07:48:37;1.20;;;0.80;;
12585;SDS011;6358;50.760;0.282;2022-08-24T07:51:07;2.55;;;1.20;;
12585;SDS011;6358;50.760;0.282;2022-08-24T07:53:34;1.50;;;0.90;;
12585;SDS011;6358;50.760;0.282;2022-08-24T07:56:00;1.20;;;0.98;;
12585;SDS011;6358;50.760;0.282;2022-08-24T07:58:26;1.02;;;0.90;;
12585;SDS011;6358;50.760;0.282;2022-08-24T08:00:52;1.55;;;1.00;;
12585;SDS011;6358;50.760;0.282;2022-08-24T08:03:18;1.17;;;1.08;;
12585;SDS011;6358;50.760;0.282;2022-08-24T08:05:46;1.20;;;1.10;;
12585;SDS011;6358;50.760;0.282;2022-08-24T08:08:13;1.38;;;1.00;;
12585;SDS011;6358;50.760;0.282;2022-08-24T08:10:39;1.10;;;0.90;;
12585;SDS011;6358;50.760;0.282;2022-08-24T08:13:06;1.33;;;1.00;;
12585;SDS011;6358;50.760;0.282;2022-08-24T08:15:32;0.90;;;0.90;;
12585;SDS011;6358;50.760;0.282;2022-08-24T08:17:58;1.15;;;0.90;;
12585;SDS011;6358;50.760;0.282;2022-08-24T08:20:24;0.63;;;0.63;;
12585;SDS011;6358;50.760;0.282;2022-08-24T08:22:50;1.38;;;0.90;;
12585;SDS011;6358;50.760;0.282;2022-08-24T08:25:35;1.67;;;1.10;;
12585;SDS011;6358;50.760;0.282;2022-08-24T08:28:03;0.77;;;0.77;;
12585;SDS011;6358;50.760;0.282;2022-08-24T08:30:30;0.73;;;0.73;;
12585;SDS011;6358;50.760;0.282;2022-08-24T08:32:57;0.60;;;0.60;;
12585;SDS011;6358;50.760;0.282;2022-08-24T08:35:23;0.65;;;0.65;;
12585;SDS011;6358;50.760;0.282;2022-08-24T08:37:50;0.93;;;0.68;;
12585;SDS011;6358;50.760;0.282;2022-08-24T08:40:26;0.75;;;0.70;;
12585;SDS011;6358;50.760;0.282;2022-08-24T08:43:00;0.90;;;0.60;;
12585;SDS011;6358;50.760;0.282;2022-08-24T08:48:19;0.85;;;0.55;;
12585;SDS011;6358;50.760;0.282;2022-08-24T08:56:02;0.50;;;0.50;;
12585;SDS011;6358;50.760;0.282;2022-08-24T09:06:43;0.95;;;0.63;;
12585;SDS011;6358;50.760;0.282;2022-08-24T09:12:02;0.47;;;0.45;;
12585;SDS011;6358;50.760;0.282;2022-08-24T09:22:19;0.45;;;0.45;;
12585;SDS011;6358;50.760;0.282;2022-08-24T09:58:42;0.65;;;0.50;;
12585;SDS011;6358;50.760;0.282;2022-08-24T10:14:38;0.70;;;0.60;;
12585;SDS011;6358;50.760;0.282;2022-08-24T10:19:39;0.50;;;0.50;;
12585;SDS011;6358;50.760;0.282;2022-08-24T10:22:21;0.88;;;0.60;;
12585;SDS011;6358;50.760;0.282;2022-08-24T10:27:43;0.50;;;0.50;;
12585;SDS011;6358;50.760;0.282;2022-08-24T10:35:04;0.35;;;0.35;;
12585;SDS011;6358;50.760;0.282;2022-08-24T10:40:25;0.43;;;0.43;;
12585;SDS011;6358;50.760;0.282;2022-08-24T10:46:04;0.50;;;0.50;;
12585;SDS011;6358;50.760;0.282;2022-08-24T10:48:40;0.70;;;0.57;;
12585;SDS011;6358;50.760;0.282;2022-08-24T10:53:49;1.38;;;0.95;;
12585;SDS011;6358;50.760;0.282;2022-08-24T10:56:17;0.60;;;0.50;;
12585;SDS011;6358;50.760;0.282;2022-08-24T11:01:21;0.50;;;0.50;;
12585;SDS011;6358;50.760;0.282;2022-08-24T11:06:21;1.13;;;0.75;;
12585;SDS011;6358;50.760;0.282;2022-08-24T11:08:55;0.70;;;0.70;;
12585;SDS011;6358;50.760;0.282;2022-08-24T11:11:23;0.77;;;0.77;;
12585;SDS011;6358;50.760;0.282;2022-08-24T11:13:51;1.33;;;0.80;;
12585;SDS011;6358;50.760;0.282;2022-08-24T11:16:22;1.15;;;0.90;;
12585;SDS011;6358;50.760;0.282;2022-08-24T11:18:52;0.95;;;0.90;;
12585;SDS011;6358;50.760;0.282;2022-08-24T11:21:52;1.48;;;0.80;;
12585;SDS011;6358;50.760;0.282;2022-08-24T11:24:12;0.45;;;0.45;;
12585;SDS011;6358;50.760;0.282;2022-08-24T11:29:21;0.70;;;0.70;;
12585;SDS011;6358;50.760;0.282;2022-08-24T11:31:49;0.80;;;0.80;;
12585;SDS011;6358;50.760;0.282;2022-08-24T11:34:18;0.75;;;0.75;;
12585;SDS011;6358;50.760;0.282;2022-08-24T11:36:45;1.13;;;0.90;;
12585;SDS011;6358;50.760;0.282;2022-08-24T11:41:48;1.30;;;1.00;;
12585;SDS011;6358;50.760;0.282;2022-08-24T11:51:55;0.70;;;0.70;;
12585;SDS011;6358;50.760;0.282;2022-08-24T11:57:11;0.60;;;0.60;;
12585;SDS011;6358;50.760;0.282;2022-08-24T11:59:48;0.73;;;0.73;;
12585;SDS011;6358;50.760;0.282;2022-08-24T12:02:32;0.80;;;0.80;;
12585;SDS011;6358;50.760;0.282;2022-08-24T12:05:07;1.00;;;1.00;;
12585;SDS011;6358;50.760;0.282;2022-08-24T12:16:02;0.68;;;0.68;;
12585;SDS011;6358;50.760;0.282;2022-08-24T12:21:17;0.93;;;0.70;;
12585;SDS011;6358;50.760;0.282;2022-08-24T12:23:45;1.40;;;0.70;;
12585;SDS011;6358;50.760;0.282;2022-08-24T12:26:16;0.68;;;0.68;;
12585;SDS011;6358;50.760;0.282;2022-08-24T12:29:07;0.52;;;0.52;;
12585;SDS011;6358;50.760;0.282;2022-08-24T12:31:41;0.63;;;0.60;;
12585;SDS011;6358;50.760;0.282;2022-08-24T12:34:15;0.70;;;0.70;;
12585;SDS011;6358;50.760;0.282;2022-08-24T12:39:11;0.60;;;0.60;;
12585;SDS011;6358;50.760;0.282;2022-08-24T12:41:42;0.50;;;0.50;;
12585;SDS011;6358;50.760;0.282;2022-08-24T12:44:14;0.70;;;0.70;;
12585;SDS011;6358;50.760;0.282;2022-08-24T12:46:40;1.90;;;1.35;;
12585;SDS011;6358;50.760;0.282;2022-08-24T12:57:11;0.88;;;0.88;;
12585;SDS011;6358;50.760;0.282;2022-08-24T12:59:39;0.80;;;0.80;;
12585;SDS011;6358;50.760;0.282;2022-08-24T13:09:46;0.70;;;0.70;;
12585;SDS011;6358;50.760;0.282;2022-08-24T13:15:59;0.80;;;0.80;;
12585;SDS011;6358;50.760;0.282;2022-08-24T13:22:48;0.50;;;0.50;;
12585;SDS011;6358;50.760;0.282;2022-08-24T13:28:34;1.38;;;0.65;;
12585;SDS011;6358;50.760;0.282;2022-08-24T13:31:04;0.50;;;0.50;;
12585;SDS011;6358;50.760;0.282;2022-08-24T13:33:40;0.60;;;0.60;;
12585;SDS011;6358;50.760;0.282;2022-08-24T13:36:32;0.43;;;0.43;;
12585;SDS011;6358;50.760;0.282;2022-08-24T13:41:41;0.40;;;0.40;;
12585;SDS011;6358;50.760;0.282;2022-08-24T13:44:15;0.50;;;0.50;;
12585;SDS011;6358;50.760;0.282;2022-08-24T13:46:56;0.40;;;0.40;;
12585;SDS011;6358;50.760;0.282;2022-08-24T13:49:38;0.50;;;0.50;;
12585;SDS011;6358;50.760;0.282;2022-08-24T14:00:14;0.40;;;0.40;;
12585;SDS011;6358;50.760;0.282;2022-08-24T14:07:57;0.30;;;0.30;;
12585;SDS011;6358;50.760;0.282;2022-08-24T14:18:02;0.40;;;0.40;;
12585;SDS011;6358;50.760;0.282;2022-08-24T14:20:56;0.43;;;0.32;;
12585;SDS011;6358;50.760;0.282;2022-08-24T14:28:48;0.30;;;0.30;;
12585;SDS011;6358;50.760;0.282;2022-08-24T14:31:21;0.20;;;0.20;;
12585;SDS011;6358;50.760;0.282;2022-08-24T14:33:56;0.25;;;0.25;;
12585;SDS011;6358;50.760;0.282;2022-08-24T14:36:41;0.32;;;0.30;;
12585;SDS011;6358;50.760;0.282;2022-08-24T14:39:17;0.20;;;0.20;;
12585;SDS011;6358;50.760;0.282;2022-08-24T14:41:51;0.22;;;0.22;;
12585;SDS011;6358;50.760;0.282;2022-08-24T14:52:06;0.13;;;0.13;;
12585;SDS011;6358;50.760;0.282;2022-08-24T15:04:54;0.10;;;0.10;;
12585;SDS011;6358;50.760;0.282;2022-08-24T15:09:50;0.20;;;0.20;;
12585;SDS011;6358;50.760;0.282;2022-08-24T15:12:36;0.50;;;0.30;;
12585;SDS011;6358;50.760;0.282;2022-08-24T15:17:41;0.15;;;0.15;;
12585;SDS011;6358;50.760;0.282;2022-08-24T15:20:14;0.10;;;0.10;;
12585;SDS011;6358;50.760;0.282;2022-08-24T15:22:48;0.20;;;0.20;;
12585;SDS011;6358;50.760;0.282;2022-08-24T15:25:22;0.00;;;0.00;;
12585;SDS011;6358;50.760;0.282;2022-08-24T15:27:55;0.20;;;0.20;;
12585;SDS011;6358;50.760;0.282;2022-08-24T15:30:25;0.20;;;0.20;;
12585;SDS011;6358;50.760;0.282;2022-08-24T15:32:53;0.10;;;0.10;;
12585;SDS011;6358;50.760;0.282;2022-08-24T15:37:52;0.40;;;0.20;;
12585;SDS011;6358;50.760;0.282;2022-08-24T15:40:25;0.20;;;0.20;;
12585;SDS011;6358;50.760;0.282;2022-08-24T15:42:54;0.10;;;0.10;;
12585;SDS011;6358;50.760;0.282;2022-08-24T15:45:21;0.43;;;0.20;;
12585;SDS011;6358;50.760;0.282;2022-08-24T15:47:48;0.22;;;0.22;;
12585;SDS011;6358;50.760;0.282;2022-08-24T15:50:19;0.20;;;0.20;;
12585;SDS011;6358;50.760;0.282;2022-08-24T15:52:51;0.20;;;0.20;;
12585;SDS011;6358;50.760;0.282;2022-08-24T15:57:58;0.30;;;0.30;;
12585;SDS011;6358;50.760;0.282;2022-08-24T16:00:37;0.50;;;0.50;;
12585;SDS011;6358;50.760;0.282;2022-08-24T16:11:31;0.32;;;0.30;;
12585;SDS011;6358;50.760;0.282;2022-08-24T16:13:57;0.30;;;0.30;;
12585;SDS011;6358;50.760;0.282;2022-08-24T16:16:34;0.43;;;0.43;;
12585;SDS011;6358;50.760;0.282;2022-08-24T16:19:02;0.30;;;0.30;;
12585;SDS011;6358;50.760;0.282;2022-08-24T16:21:42;0.20;;;0.20;;
12585;SDS011;6358;50.760;0.282;2022-08-24T16:34:43;0.45;;;0.40;;
12585;SDS011;6358;50.760;0.282;2022-08-24T16:37:09;1.05;;;0.30;;
12585;SDS011;6358;50.760;0.282;2022-08-24T16:39:35;0.20;;;0.20;;
12585;SDS011;6358;50.760;0.282;2022-08-24T16:42:03;0.45;;;0.20;;
12585;SDS011;6358;50.760;0.282;2022-08-24T16:44:32;0.20;;;0.20;;
12585;SDS011;6358;50.760;0.282;2022-08-24T16:46:59;0.30;;;0.30;;
12585;SDS011;6358;50.760;0.282;2022-08-24T16:49:26;0.10;;;0.10;;
12585;SDS011;6358;50.760;0.282;2022-08-24T16:51:52;0.20;;;0.20;;
12585;SDS011;6358;50.760;0.282;2022-08-24T16:54:19;0.20;;;0.20;;
12585;SDS011;6358;50.760;0.282;2022-08-24T16:56:45;0.25;;;0.20;;
12585;SDS011;6358;50.760;0.282;2022-08-24T16:59:13;0.30;;;0.30;;
12585;SDS011;6358;50.760;0.282;2022-08-24T17:01:40;0.30;;;0.30;;
12585;SDS011;6358;50.760;0.282;2022-08-24T17:04:06;0.30;;;0.30;;
12585;SDS011;6358;50.760;0.282;2022-08-24T17:06:32;0.20;;;0.20;;
12585;SDS011;6358;50.760;0.282;2022-08-24T17:08:58;0.20;;;0.20;;
12585;SDS011;6358;50.760;0.282;2022-08-24T17:11:24;0.20;;;0.20;;
12585;SDS011;6358;50.760;0.282;2022-08-24T17:13:51;0.20;;;0.20;;
12585;SDS011;6358;50.760;0.282;2022-08-24T17:16:18;0.47;;;0.32;;
12585;SDS011;6358;50.760;0.282;2022-08-24T17:18:45;0.32;;;0.30;;
12585;SDS011;6358;50.760;0.282;2022-08-24T17:21:11;0.30;;;0.30;;
12585;SDS011;6358;50.760;0.282;2022-08-24T17:23:38;0.20;;;0.20;;
12585;SDS011;6358;50.760;0.282;2022-08-24T17:26:06;0.30;;;0.30;;
12585;SDS011;6358;50.760;0.282;2022-08-24T17:28:35;1.40;;;0.50;;
12585;SDS011;6358;50.760;0.282;2022-08-24T17:31:02;0.43;;;0.43;;
12585;SDS011;6358;50.760;0.282;2022-08-24T17:33:30;0.60;;;0.60;;
12585;SDS011;6358;50.760;0.282;2022-08-24T17:35:56;0.50;;;0.50;;
12585;SDS011;6358;50.760;0.282;2022-08-24T17:38:23;0.52;;;0.52;;
12585;SDS011;6358;50.760;0.282;2022-08-24T17:40:49;0.80;;;0.80;;
12585;SDS011;6358;50.760;0.282;2022-08-24T17:43:16;1.00;;;0.90;;
12585;SDS011;6358;50.760;0.282;2022-08-24T17:45:43;1.85;;;1.33;;
12585;SDS011;6358;50.760;0.282;2022-08-24T17:48:09;2.53;;;1.50;;
12585;SDS011;6358;50.760;0.282;2022-08-24T17:50:37;1.52;;;1.40;;
12585;SDS011;6358;50.760;0.282;2022-08-24T17:53:04;1.50;;;1.40;;
12585;SDS011;6358;50.760;0.282;2022-08-24T17:55:30;1.30;;;1.20;;
12585;SDS011;6358;50.760;0.282;2022-08-24T17:57:56;1.20;;;1.20;;
12585;SDS011;6358;50.760;0.282;2022-08-24T18:00:22;1.17;;;1.17;;
12585;SDS011;6358;50.760;0.282;2022-08-24T18:02:49;1.27;;;1.17;;
12585;SDS011;6358;50.760;0.282;2022-08-24T18:05:15;1.40;;;1.30;;
12585;SDS011;6358;50.760;0.282;2022-08-24T18:07:44;1.33;;;1.23;;
12585;SDS011;6358;50.760;0.282;2022-08-24T18:10:11;1.10;;;1.10;;
12585;SDS011;6358;50.760;0.282;2022-08-24T18:12:39;1.45;;;1.10;;
12585;SDS011;6358;50.760;0.282;2022-08-24T18:15:05;1.30;;;1.20;;
12585;SDS011;6358;50.760;0.282;2022-08-24T18:17:38;1.00;;;1.00;;
12585;SDS011;6358;50.760;0.282;2022-08-24T18:20:06;1.10;;;1.10;;
12585;SDS011;6358;50.760;0.282;2022-08-24T18:22:32;2.55;;;1.42;;
12585;SDS011;6358;50.760;0.282;2022-08-24T18:24:58;1.58;;;1.48;;
12585;SDS011;6358;50.760;0.282;2022-08-24T18:27:26;1.33;;;1.20;;
12585;SDS011;6358;50.760;0.282;2022-08-24T18:29:53;2.40;;;1.38;;
12585;SDS011;6358;50.760;0.282;2022-08-24T18:32:21;1.30;;;1.20;;
12585;SDS011;6358;50.760;0.282;2022-08-24T18:34:47;1.10;;;1.10;;
12585;SDS011;6358;50.760;0.282;2022-08-24T18:37:14;1.92;;;1.20;;
12585;SDS011;6358;50.760;0.282;2022-08-24T18:39:40;0.95;;;0.95;;
12585;SDS011;6358;50.760;0.282;2022-08-24T18:42:06;0.95;;;0.90;;
12585;SDS011;6358;50.760;0.282;2022-08-24T18:44:33;1.08;;;1.00;;
12585;SDS011;6358;50.760;0.282;2022-08-24T18:47:00;2.28;;;1.20;;
12585;SDS011;6358;50.760;0.282;2022-08-24T18:49:26;1.08;;;1.00;;
12585;SDS011;6358;50.760;0.282;2022-08-24T18:51:52;1.30;;;1.20;;
12585;SDS011;6358;50.760;0.282;2022-08-24T18:54:24;1.20;;;1.10;;
12585;SDS011;6358;50.760;0.282;2022-08-24T18:56:50;1.02;;;1.02;;
12585;SDS011;6358;50.760;0.282;2022-08-24T18:59:17;1.60;;;1.20;;
12585;SDS011;6358;50.760;0.282;2022-08-24T19:01:45;0.80;;;0.80;;